Decoded Metar for VDSV ( in ) (IATA:) | Meteo·Mobile Aviation Weather
aviador You're here:

VDSV Decoded Metar

in
Report Time2019-10-22 13:30:00
UTC Time2019-10-22 14:06:31
Flight Rules vfr VFR
WindVRB at 01 kt
Visibility9000 m
Phenomena:N/A
Clouds:Scattered 015 Hf
Expected CloudBase > 1,600 ft AGL from Temp-Dew spread
CeilingNone
Temp29°C
Dew Point25°C (79% RH)
Heat Index34.5°C
QNH1009 hPa
Raw Report
METAR VDSV 221330Z VRB01KT 9000 SCT015 29/25 Q1009=

Extra information for VDSV:More info

Social comments